METAR Data
IDs: Format: Raw Decoded Include TAF

Data at: 1218 UTC 20 Oct 2021

PAGK 201153Z AUTO 01007KT 10SM BKN070 M04/M08 A2930 RMK AO2 SLP949 T10441083 11028 21056 51007 TSNO